Map

Track Data

SID SEASON NUMBER BASIN SUBBASIN NAME ISO_TIME NATURE LAT LON WMO_WIND WMO_PRES WMO_AGENCY TRACK_TYPE DIST2LAND LANDFALL IFLAG USA_AGENCY USA_ATCF_ID USA_LAT USA_LON USA_RECORD USA_STATUS USA_WIND USA_PRES USA_SSHS USA_R34_NE USA_R34_SE USA_R34_SW USA_R34_NW USA_R50_NE USA_R50_SE USA_R50_SW USA_R50_NW USA_R64_NE USA_R64_SE USA_R64_SW USA_R64_NW USA_POCI USA_ROCI USA_RMW USA_EYE TOKYO_LAT TOKYO_LON TOKYO_GRADE TOKYO_WIND TOKYO_PRES TOKYO_R50_DIR TOKYO_R50_LONG TOKYO_R50_SHORT TOKYO_R30_DIR TOKYO_R30_LONG TOKYO_R30_SHORT TOKYO_LAND CMA_LAT CMA_LON CMA_CAT CMA_WIND CMA_PRES HKO_LAT HKO_LON HKO_CAT HKO_WIND HKO_PRES NEWDELHI_LAT NEWDELHI_LON NEWDELHI_GRADE NEWDELHI_WIND NEWDELHI_PRES NEWDELHI_CI NEWDELHI_DP NEWDELHI_POCI REUNION_LAT REUNION_LON REUNION_TYPE REUNION_WIND REUNION_PRES REUNION_TNUM REUNION_CI REUNION_RMW REUNION_R34_NE REUNION_R34_SE REUNION_R34_SW REUNION_R34_NW REUNION_R50_NE REUNION_R50_SE REUNION_R50_SW REUNION_R50_NW REUNION_R64_NE REUNION_R64_SE REUNION_R64_SW REUNION_R64_NW BOM_LAT BOM_LON BOM_TYPE BOM_WIND BOM_PRES BOM_TNUM BOM_CI BOM_RMW BOM_R34_NE BOM_R34_SE BOM_R34_SW BOM_R34_NW BOM_R50_NE BOM_R50_SE BOM_R50_SW BOM_R50_NW BOM_R64_NE BOM_R64_SE BOM_R64_SW BOM_R64_NW BOM_ROCI BOM_POCI BOM_EYE BOM_POS_METHOD BOM_PRES_METHOD NADI_LAT NADI_LON NADI_CAT NADI_WIND NADI_PRES WELLINGTON_LAT WELLINGTON_LON WELLINGTON_WIND WELLINGTON_PRES DS824_LAT DS824_LON DS824_STAGE DS824_WIND DS824_PRES TD9636_LAT TD9636_LON TD9636_STAGE TD9636_WIND TD9636_PRES TD9635_LAT TD9635_LON TD9635_WIND TD9635_PRES TD9635_ROCI NEUMANN_LAT NEUMANN_LON NEUMANN_CLASS NEUMANN_WIND NEUMANN_PRES MLC_LAT MLC_LON MLC_CLASS MLC_WIND MLC_PRES USA_GUST BOM_GUST BOM_GUST_PER REUNION_GUST REUNION_GUST_PER USA_SEAHGT USA_SEARAD_NE USA_SEARAD_SE USA_SEARAD_SW USA_SEARAD_NW STORM_SPEED STORM_DIR
1923209N23091 1923 44 NI BB NOT_NAMED 1923-07-28 00:00:00 TS 22.8000 90.6000 main 0 0 _________O____ -1 22.8000 90.6000 TC 30 12 291
1923209N23091 1923 44 NI BB NOT_NAMED 1923-07-28 03:00:00 TS 23.0158 89.9973 main 0 0 _________PO___ -1 23.1237 89.6960 TC 30 22.8000 90.6000 1 14 290
1923209N23091 1923 44 NI BB NOT_NAMED 1923-07-28 06:00:00 TS 23.2702 89.1893 main 0 0 _________OP___ -1 23.4000 88.8000 TC 30 23.0755 89.7732 1 16 287
1923209N23091 1923 44 NI BB NOT_NAMED 1923-07-28 09:00:00 TS 23.4807 88.3437 main 0 0 _________PP___ -1 23.5942 87.9148 TC 30 23.3293 88.9156 1 16 283
1923209N23091 1923 44 NI BB NOT_NAMED 1923-07-28 12:00:00 TS 23.6218 87.5002 main 0 0 _________OP___ -1 23.7000 87.0000 TC 30 23.5437 88.0003 1 17 278
1923209N23091 1923 44 NI BB NOT_NAMED 1923-07-28 15:00:00 TS 23.7073 86.5072 main 0 0 _________PO___ -1 23.7146 86.0143 TC 30 23.7000 87.0000 1 19 274
1923209N23091 1923 44 NI BB NOT_NAMED 1923-07-28 18:00:00 TS 23.7428 85.4548 main 0 0 _________OP___ -1 23.7000 85.0000 TC 30 23.7856 85.9095 1 20 272
1923209N23091 1923 44 NI BB NOT_NAMED 1923-07-28 21:00:00 TS 23.7828 84.3530 main 0 0 _________PP___ -1 23.7509 83.8954 TC 30 23.8148 84.8106 1 19 272
1923209N23091 1923 44 NI BB NOT_NAMED 1923-07-29 00:00:00 TS 23.8054 83.4032 main 0 0 _________OP___ -1 23.8000 83.0000 TC 30 23.8109 83.8065 1 14 271
1923209N23091 1923 44 NI BB NOT_NAMED 1923-07-29 03:00:00 TS 23.7994 82.7937 main 0 0 _________PO___ -1 23.7989 82.5874 TC 30 23.8000 83.0000 1 9 270
1923209N23091 1923 44 NI BB NOT_NAMED 1923-07-29 06:00:00 TS 23.8043 82.4663 main 0 0 _________OP___ -1 23.8000 82.4000 TC 30 23.8085 82.5327 1 5 273
1923209N23091 1923 44 NI BB NOT_NAMED 1923-07-29 09:00:00 TS 23.8286 82.2136 main 0 0 _________PP___ -1 23.8348 82.1649 TC 30 23.8225 82.2622 1 4 279
1923209N23091 1923 44 NI BB NOT_NAMED 1923-07-29 12:00:00 TS 23.8752 81.9928 main 0 0 _________OP___ -1 23.9000 81.9000 TC 30 23.8504 82.0857 1 5 284
1923209N23091 1923 44 NI BB NOT_NAMED 1923-07-29 15:00:00 TS 23.9463 81.7075 main 0 0 _________PO___ -1 23.9926 81.5151 TC 30 23.9000 81.9000 1 6 285
1923209N23091 1923 44 NI BB NOT_NAMED 1923-07-29 18:00:00 TS 24.0436 81.3089 main 0 0 _________OP___ -1 24.1000 81.1000 TC 30 23.9871 81.5177 1 8 286
1923209N23091 1923 44 NI BB NOT_NAMED 1923-07-29 21:00:00 TS 24.1504 80.9129 main 0 0 _________PP___ -1 24.2075 80.7125 TC 30 24.0933 81.1132 1 7 287
1923209N23091 1923 44 NI BB NOT_NAMED 1923-07-30 00:00:00 TS 24.2514 80.5635 main 0 0 _________OP___ -1 24.3000 80.4000 TC 30 24.2028 80.7271 1 6 288
1923209N23091 1923 44 NI BB NOT_NAMED 1923-07-30 03:00:00 TS 24.3287 80.3100 main 0 0 _________PO___ -1 24.3574 80.2199 TC 30 24.3000 80.4000 1 4 288
1923209N23091 1923 44 NI BB NOT_NAMED 1923-07-30 06:00:00 TS 24.3799 80.1425 main 0 0 _________OP___ -1 24.4000 80.1000 TC 30 24.3597 80.1849 1 3 289
1923209N23091 1923 44 NI BB NOT_NAMED 1923-07-30 09:00:00 TS 24.4284 79.9910 main 0 0 _________PP___ -1 24.4500 79.9500 TC 30 24.4068 80.0321 1 3 290
1923209N23091 1923 44 NI BB NOT_NAMED 1923-07-30 12:00:00 TS 24.4753 79.8566 main 0 0 _________OP___ -1 24.5000 79.8000 TC 30 24.4505 79.9132 1 3 291
1923209N23091 1923 44 NI BB NOT_NAMED 1923-07-30 15:00:00 TS 24.5212 79.7250 main 0 0 _________PO___ -1 24.5425 79.6500 TC 30 24.5000 79.8000 1 3 293
1923209N23091 1923 44 NI BB NOT_NAMED 1923-07-30 18:00:00 TS 24.5784 79.5971 main 0 0 _________OP___ -1 24.6000 79.5000 TC 30 24.5622 79.6699 1 3 299
1923209N23091 1923 44 NI BB NOT_NAMED 1923-07-30 21:00:00 TS 24.6573 79.4538 main 0 0 _________PP___ -1 24.6900 79.3501 TC 30 24.6354 79.5229 1 3 302
1923209N23091 1923 44 NI BB NOT_NAMED 1923-07-31 00:00:00 TS 24.7440 79.3096 main 0 0 _________OP___ -1 24.8000 79.2000 TC 30 24.7159 79.3644 1 3 302
1923209N23091 1923 44 NI BB NOT_NAMED 1923-07-31 03:00:00 NR 24.8000 79.2000 main 0 __________O___ -1 TC 24.8000 79.2000 1 2 300

About IBTrACS Database

This database is a web-friendly format of International Best Track Archive for Climate Stewardship (IBTrACS), a global best track data archive curated by NOAA dating back to 1842.

Updated: 2021-12-06